createdAt,value
2017-10-24T00:00:45.366Z,8.50
2017-10-24T00:03:14.234Z,9.07
2017-10-24T00:05:42.486Z,7.50
2017-10-24T00:08:10.732Z,8.13
2017-10-24T00:10:38.994Z,7.33
2017-10-24T00:13:07.244Z,7.37
2017-10-24T00:15:35.491Z,8.53
2017-10-24T00:18:03.754Z,8.07
2017-10-24T00:20:32.766Z,8.13
2017-10-24T00:23:01.014Z,8.07
2017-10-24T00:25:29.327Z,8.70
2017-10-24T00:27:57.571Z,8.00
2017-10-24T00:30:25.810Z,8.20
2017-10-24T00:32:54.075Z,7.93
2017-10-24T00:35:22.327Z,8.67
2017-10-24T00:37:50.562Z,7.83
2017-10-24T00:40:18.825Z,9.23
2017-10-24T00:42:47.072Z,8.23
2017-10-24T00:45:15.314Z,7.87
2017-10-24T00:47:45.362Z,8.13
2017-10-24T00:50:13.606Z,7.90
2017-10-24T00:52:41.846Z,7.87
2017-10-24T00:55:10.126Z,7.77
2017-10-24T00:57:38.366Z,7.90
2017-10-24T01:00:06.610Z,8.00
2017-10-24T01:02:35.650Z,8.70
2017-10-24T01:05:03.890Z,8.67
2017-10-24T01:07:32.133Z,8.30
2017-10-24T01:10:00.629Z,9.10
2017-10-24T01:12:28.874Z,8.40
2017-10-24T01:14:57.122Z,7.77
2017-10-24T01:17:25.387Z,6.90
2017-10-24T01:19:53.634Z,7.83
2017-10-24T01:22:22.651Z,8.60
2017-10-24T01:24:50.914Z,9.00
2017-10-24T01:27:19.926Z,8.30
2017-10-24T01:29:48.180Z,8.40
2017-10-24T01:32:16.835Z,8.90
2017-10-24T01:34:45.082Z,8.70
2017-10-24T01:37:13.331Z,9.13
2017-10-24T01:39:41.608Z,9.23
2017-10-24T01:42:09.854Z,8.83
2017-10-24T01:44:38.101Z,8.33
2017-10-24T01:47:06.366Z,8.67
2017-10-24T01:49:35.422Z,8.10
2017-10-24T01:52:04.438Z,8.43
2017-10-24T01:54:33.814Z,9.13
2017-10-24T01:57:02.826Z,9.13
2017-10-24T01:59:31.076Z,8.43
2017-10-24T02:01:59.351Z,8.83
2017-10-24T02:04:27.599Z,9.60
2017-10-24T02:06:55.854Z,10.00
2017-10-24T02:09:24.124Z,9.30
2017-10-24T02:11:52.365Z,8.60
2017-10-24T02:14:21.381Z,10.10
2017-10-24T02:16:49.737Z,9.13
2017-10-24T02:19:18.751Z,9.00
2017-10-24T02:21:46.993Z,10.80
2017-10-24T02:24:15.490Z,10.60
2017-10-24T02:26:44.515Z,10.30
2017-10-24T02:29:12.761Z,9.87
2017-10-24T02:31:41.797Z,11.23
2017-10-24T02:34:10.058Z,10.10
2017-10-24T02:36:38.379Z,10.07
2017-10-24T02:39:07.042Z,10.87
2017-10-24T02:41:35.299Z,10.37
2017-10-24T02:44:03.554Z,10.93
2017-10-24T02:46:31.838Z,10.73
2017-10-24T02:49:00.087Z,9.77
2017-10-24T02:51:28.758Z,9.37
2017-10-24T02:53:57.522Z,9.70
2017-10-24T02:56:25.778Z,10.73
2017-10-24T02:58:54.023Z,9.90
2017-10-24T03:01:23.306Z,10.33
2017-10-24T03:03:51.545Z,10.30
2017-10-24T03:06:19.886Z,10.67
2017-10-24T03:08:48.164Z,11.10
2017-10-24T03:11:17.171Z,11.10
2017-10-24T03:13:45.431Z,12.13
2017-10-24T03:16:13.702Z,10.83
2017-10-24T03:18:42.721Z,11.87
2017-10-24T03:21:10.963Z,11.57
2017-10-24T03:23:39.301Z,11.87
2017-10-24T03:26:07.559Z,11.70
2017-10-24T03:28:35.817Z,11.80
2017-10-24T03:31:05.107Z,12.87
2017-10-24T03:33:34.125Z,13.10
2017-10-24T03:36:02.383Z,12.70
2017-10-24T03:38:31.419Z,12.00
2017-10-24T03:40:59.670Z,12.50
2017-10-24T03:43:27.922Z,12.50
2017-10-24T03:45:57.277Z,11.43
2017-10-24T03:48:25.534Z,12.90
2017-10-24T03:50:53.783Z,12.40
2017-10-24T03:53:23.122Z,12.13
2017-10-24T03:55:51.378Z,11.67
2017-10-24T03:58:19.636Z,11.50
2017-10-24T04:00:47.943Z,12.23
2017-10-24T04:03:16.210Z,12.50
2017-10-24T04:05:44.733Z,11.40
2017-10-24T04:08:13.098Z,11.37
2017-10-24T04:10:41.354Z,12.00
2017-10-24T04:13:09.606Z,11.83
2017-10-24T04:15:40.844Z,11.53
2017-10-24T04:18:09.863Z,11.30
2017-10-24T04:20:38.111Z,12.10
2017-10-24T04:23:06.390Z,11.30
2017-10-24T04:25:34.647Z,11.80
2017-10-24T04:28:02.919Z,11.50
2017-10-24T04:30:31.307Z,11.50
2017-10-24T04:32:59.562Z,12.47
2017-10-24T04:35:27.808Z,12.73
2017-10-24T04:37:56.081Z,12.50
2017-10-24T04:40:24.477Z,13.20
2017-10-24T04:42:52.705Z,13.00
2017-10-24T04:45:21.750Z,13.40
2017-10-24T04:47:50.011Z,12.73
2017-10-24T04:50:18.266Z,13.27
2017-10-24T04:52:46.893Z,14.40
2017-10-24T04:55:15.539Z,13.83
2017-10-24T04:57:44.590Z,13.73
2017-10-24T05:00:12.846Z,12.53
2017-10-24T05:02:41.095Z,13.43
2017-10-24T05:05:09.519Z,13.10
2017-10-24T05:07:37.781Z,14.10
2017-10-24T05:10:06.038Z,14.20
2017-10-24T05:12:34.294Z,14.13
2017-10-24T05:15:03.971Z,13.87
2017-10-24T05:17:32.223Z,15.17
2017-10-24T05:20:00.511Z,15.37
2017-10-24T05:22:28.774Z,17.17
2017-10-24T05:24:57.029Z,15.90
2017-10-24T05:27:25.282Z,17.03
2017-10-24T05:29:54.329Z,16.50
2017-10-24T05:32:22.818Z,19.00
2017-10-24T05:34:51.071Z,18.23
2017-10-24T05:37:19.894Z,17.73
2017-10-24T05:39:48.130Z,17.03
2017-10-24T05:42:16.382Z,20.57
2017-10-24T05:44:44.671Z,20.03
2017-10-24T05:47:12.931Z,19.70
2017-10-24T05:49:41.413Z,20.40
2017-10-24T05:52:09.696Z,19.10
2017-10-24T05:54:37.953Z,18.13
2017-10-24T05:57:07.474Z,20.50
2017-10-24T05:59:36.687Z,18.60
2017-10-24T06:02:05.834Z,19.03
2017-10-24T06:04:34.087Z,18.80
2017-10-24T06:07:02.363Z,19.63
2017-10-24T06:09:30.619Z,20.67
2017-10-24T06:11:58.871Z,18.33
2017-10-24T06:14:27.909Z,16.73
2017-10-24T06:16:56.166Z,18.20
2017-10-24T06:19:24.427Z,20.00
2017-10-24T06:21:53.146Z,19.33
2017-10-24T06:24:21.419Z,18.57
2017-10-24T06:26:49.665Z,16.37
2017-10-24T06:29:18.702Z,15.83
2017-10-24T06:31:46.955Z,14.33
2017-10-24T06:34:15.206Z,11.37
2017-10-24T06:36:44.247Z,13.00
2017-10-24T06:39:12.499Z,9.00
2017-10-24T06:41:40.750Z,9.30
2017-10-24T06:44:09.870Z,7.57
2017-10-24T06:46:38.121Z,6.57
2017-10-24T06:49:07.131Z,5.80
2017-10-24T06:51:36.415Z,7.43
2017-10-24T06:54:06.606Z,5.50
2017-10-24T06:56:34.851Z,6.37
2017-10-24T06:59:03.703Z,6.37
2017-10-24T07:01:32.720Z,4.90
2017-10-24T07:04:00.986Z,4.80
2017-10-24T07:06:29.662Z,6.00
2017-10-24T07:08:58.308Z,5.80
2017-10-24T07:11:26.542Z,5.83
2017-10-24T07:13:54.806Z,3.70
2017-10-24T07:16:23.878Z,4.97
2017-10-24T07:18:52.111Z,5.00
2017-10-24T07:21:20.515Z,4.70
2017-10-24T07:23:48.740Z,4.40
2017-10-24T07:26:17.746Z,4.60
2017-10-24T07:28:46.199Z,4.33
2017-10-24T07:31:14.449Z,4.57
2017-10-24T07:33:42.693Z,3.53
2017-10-24T07:36:10.962Z,3.47
2017-10-24T07:38:39.206Z,3.10
2017-10-24T07:41:07.454Z,2.60
2017-10-24T07:43:35.734Z,2.50
2017-10-24T07:46:03.974Z,2.60
2017-10-24T07:48:32.215Z,1.73
2017-10-24T07:51:01.559Z,1.80
2017-10-24T07:53:29.790Z,1.87
2017-10-24T07:55:58.035Z,2.10
2017-10-24T07:58:26.310Z,1.87
2017-10-24T08:00:54.723Z,1.50
2017-10-24T08:03:23.738Z,1.63
2017-10-24T08:05:52.043Z,1.70
2017-10-24T08:08:20.300Z,1.20
2017-10-24T08:10:48.548Z,1.37
2017-10-24T08:13:17.896Z,1.23
2017-10-24T08:15:46.138Z,1.23
2017-10-24T08:18:14.394Z,1.03
2017-10-24T08:20:42.675Z,1.27
2017-10-24T08:23:11.687Z,1.30
2017-10-24T08:25:39.927Z,1.50
2017-10-24T08:28:08.419Z,1.30
2017-10-24T08:30:37.434Z,1.00
2017-10-24T08:33:06.438Z,1.30
2017-10-24T08:35:34.883Z,1.17
2017-10-24T08:38:03.470Z,1.10
2017-10-24T08:40:31.695Z,1.27
2017-10-24T08:42:59.959Z,1.30
2017-10-24T08:45:28.206Z,1.20
2017-10-24T08:47:56.452Z,1.00
2017-10-24T08:50:24.721Z,1.00
2017-10-24T08:52:52.963Z,1.10
2017-10-24T08:55:21.211Z,1.13
2017-10-24T08:57:50.522Z,1.10
2017-10-24T09:00:19.527Z,0.90
2017-10-24T09:02:48.198Z,1.40
2017-10-24T09:05:16.476Z,0.90
2017-10-24T09:07:45.492Z,1.00
2017-10-24T09:10:23.299Z,1.10
2017-10-24T09:12:51.546Z,1.03
2017-10-24T09:15:35.690Z,1.00
2017-10-24T09:18:04.699Z,0.80
2017-10-24T09:20:32.942Z,0.90
2017-10-24T09:23:01.212Z,1.00
2017-10-24T09:25:29.583Z,1.20
2017-10-24T09:27:57.806Z,1.00
2017-10-24T09:30:26.069Z,1.10
2017-10-24T09:32:55.136Z,1.00
2017-10-24T09:35:23.409Z,1.10
2017-10-24T09:37:51.746Z,1.30
2017-10-24T09:40:20.004Z,1.00
2017-10-24T09:42:49.018Z,0.90
2017-10-24T09:45:17.294Z,1.30
2017-10-24T09:47:45.542Z,1.10
2017-10-24T09:50:13.790Z,1.00
2017-10-24T09:52:42.069Z,1.40
2017-10-24T09:55:11.066Z,1.10
2017-10-24T09:57:39.317Z,0.97
2017-10-24T10:00:09.061Z,1.20
2017-10-24T10:02:37.310Z,1.40
2017-10-24T10:05:05.550Z,1.60
2017-10-24T10:07:33.821Z,1.20
2017-10-24T10:10:02.071Z,1.20
2017-10-24T10:12:31.094Z,1.50
2017-10-24T10:14:59.359Z,1.40
2017-10-24T10:17:27.610Z,1.47
2017-10-24T10:19:55.849Z,1.37
2017-10-24T10:22:24.254Z,2.00
2017-10-24T10:24:52.626Z,1.50
2017-10-24T10:27:20.861Z,1.70
2017-10-24T10:29:49.182Z,1.70
2017-10-24T10:32:19.610Z,1.50
2017-10-24T10:34:47.852Z,1.60
2017-10-24T10:37:16.119Z,1.70
2017-10-24T10:39:44.362Z,1.70
2017-10-24T10:42:12.606Z,1.83
2017-10-24T10:44:40.974Z,1.50
2017-10-24T10:47:09.229Z,1.70
2017-10-24T10:49:37.472Z,1.90
2017-10-24T10:52:06.500Z,1.60
2017-10-24T10:54:34.747Z,2.00
2017-10-24T10:57:02.995Z,1.80
2017-10-24T10:59:31.259Z,1.97
2017-10-24T11:01:59.501Z,2.17
2017-10-24T11:04:27.746Z,2.17
2017-10-24T11:06:56.854Z,1.90
2017-10-24T11:09:25.294Z,1.60
2017-10-24T11:11:53.537Z,2.10
2017-10-24T11:14:21.811Z,1.40
2017-10-24T11:16:50.057Z,1.97
2017-10-24T11:19:18.396Z,1.73
2017-10-24T11:21:46.642Z,1.60
2017-10-24T11:24:14.886Z,2.10
2017-10-24T11:26:43.903Z,1.93
2017-10-24T11:29:12.233Z,2.10
2017-10-24T11:31:40.486Z,2.60
2017-10-24T11:36:44.264Z,2.50
2017-10-24T11:39:12.519Z,2.40
2017-10-24T11:41:40.770Z,2.03
2017-10-24T11:44:09.062Z,2.50
2017-10-24T11:46:37.307Z,2.50
2017-10-24T11:49:05.559Z,2.43
2017-10-24T11:51:34.292Z,2.40
2017-10-24T11:54:02.540Z,2.37
2017-10-24T11:56:30.782Z,2.37
2017-10-24T11:58:59.819Z,2.50
2017-10-24T12:01:28.077Z,2.00
2017-10-24T12:03:56.333Z,2.30
2017-10-24T12:06:24.806Z,2.60
2017-10-24T12:08:54.110Z,2.20
2017-10-24T12:11:22.355Z,2.23
2017-10-24T12:13:50.910Z,2.40
2017-10-24T12:16:19.151Z,2.10
2017-10-24T12:18:47.394Z,2.70
2017-10-24T12:21:15.667Z,2.47
2017-10-24T12:23:43.902Z,2.53
2017-10-24T12:26:12.143Z,2.10
2017-10-24T12:28:41.190Z,2.10
2017-10-24T12:31:09.428Z,1.80
2017-10-24T12:33:37.670Z,1.97
2017-10-24T12:36:06.323Z,2.20
2017-10-24T12:38:34.562Z,2.30
2017-10-24T12:41:02.808Z,2.33
2017-10-24T12:43:31.071Z,2.00
2017-10-24T12:46:01.119Z,2.50
2017-10-24T12:48:29.370Z,2.40
2017-10-24T12:51:11.703Z,1.70
2017-10-24T12:53:39.953Z,1.73
2017-10-24T12:56:08.327Z,2.33
2017-10-24T12:58:42.198Z,2.40
2017-10-24T13:01:10.442Z,2.50
2017-10-24T13:03:38.685Z,2.00
2017-10-24T13:06:06.946Z,2.90
2017-10-24T13:08:35.194Z,2.60
2017-10-24T13:11:03.866Z,2.07
2017-10-24T13:13:33.170Z,2.70
2017-10-24T13:16:02.186Z,2.30
2017-10-24T13:18:31.425Z,2.60
2017-10-24T13:21:00.138Z,2.47
2017-10-24T13:23:29.158Z,2.40
2017-10-24T13:25:57.401Z,2.67
2017-10-24T13:28:28.358Z,2.90
2017-10-24T13:30:57.374Z,3.37
2017-10-24T13:33:25.687Z,3.03
2017-10-24T13:35:54.010Z,2.87
2017-10-24T13:38:22.254Z,2.77
2017-10-24T13:40:50.498Z,2.83
2017-10-24T13:43:18.770Z,3.43
2017-10-24T13:45:47.012Z,4.00
2017-10-24T13:48:16.039Z,4.00
2017-10-24T13:50:44.375Z,4.07
2017-10-24T13:53:13.383Z,4.57
2017-10-24T13:55:42.394Z,5.53
2017-10-24T13:58:10.726Z,5.70
2017-10-24T14:00:38.964Z,5.70
2017-10-24T14:03:07.208Z,5.07
2017-10-24T14:05:41.850Z,5.60
2017-10-24T14:08:15.814Z,6.20
2017-10-24T14:10:44.086Z,6.90
2017-10-24T14:13:12.341Z,6.03
2017-10-24T14:15:40.594Z,7.10
2017-10-24T14:18:09.216Z,7.17
2017-10-24T14:20:38.073Z,6.37
2017-10-24T14:23:06.324Z,6.40
2017-10-24T14:25:34.599Z,5.80
2017-10-24T14:28:03.617Z,6.57
2017-10-24T14:30:31.862Z,6.70
2017-10-24T14:33:01.311Z,5.80
2017-10-24T14:35:29.579Z,5.50
2017-10-24T14:37:57.886Z,6.10
2017-10-24T14:40:26.222Z,5.90
2017-10-24T14:42:54.471Z,5.80
2017-10-24T14:45:23.487Z,5.90
2017-10-24T14:47:51.750Z,5.97
2017-10-24T14:50:20.758Z,5.83
2017-10-24T14:52:49.001Z,6.53
2017-10-24T14:55:17.267Z,6.23
2017-10-24T14:57:45.512Z,6.00
2017-10-24T15:00:13.753Z,6.30
2017-10-24T15:02:43.091Z,7.00
2017-10-24T15:05:11.382Z,6.40
2017-10-24T15:07:39.627Z,6.80
2017-10-24T15:10:07.886Z,7.40
2017-10-24T15:12:36.918Z,7.30
2017-10-24T15:15:05.171Z,7.40
2017-10-24T15:17:33.438Z,7.10
2017-10-24T15:20:01.674Z,6.83
2017-10-24T15:22:29.918Z,7.37
2017-10-24T15:24:58.505Z,7.40
2017-10-24T15:27:26.746Z,7.23
2017-10-24T15:29:54.985Z,7.00
2017-10-24T15:32:23.258Z,7.27
2017-10-24T15:34:52.563Z,7.20
2017-10-24T15:37:20.939Z,8.20
2017-10-24T15:39:49.344Z,7.70
2017-10-24T15:42:17.562Z,6.60
2017-10-24T15:44:47.002Z,6.00
2017-10-24T15:47:15.335Z,6.10
2017-10-24T15:49:43.582Z,6.17
2017-10-24T15:52:11.918Z,5.80
2017-10-24T15:54:40.273Z,5.93
2017-10-24T15:57:08.514Z,6.67
2017-10-24T15:59:37.534Z,6.43
2017-10-24T16:02:05.974Z,5.70
2017-10-24T16:04:34.228Z,5.57
2017-10-24T16:07:02.467Z,6.23
2017-10-24T16:09:30.981Z,5.63
2017-10-24T16:11:59.211Z,4.87
2017-10-24T16:14:27.890Z,4.17
2017-10-24T16:16:56.918Z,4.30
2017-10-24T16:19:25.209Z,4.30
2017-10-24T16:21:54.526Z,3.50
2017-10-24T16:24:22.803Z,3.97
2017-10-24T16:26:51.053Z,3.57
2017-10-24T16:29:19.315Z,3.60
2017-10-24T16:31:47.802Z,4.13
2017-10-24T16:34:16.133Z,3.97
2017-10-24T16:36:44.505Z,3.80
2017-10-24T16:39:12.780Z,2.90
2017-10-24T16:41:41.086Z,3.60
2017-10-24T16:44:10.100Z,3.10
2017-10-24T16:46:38.362Z,3.07
2017-10-24T16:49:07.495Z,3.40
2017-10-24T16:51:35.728Z,2.83
2017-10-24T16:54:04.833Z,3.23
2017-10-24T16:56:33.083Z,2.50
2017-10-24T16:59:01.383Z,2.93
2017-10-24T17:01:30.420Z,2.40
2017-10-24T17:03:58.658Z,2.10
2017-10-24T17:06:26.917Z,2.50
2017-10-24T17:08:55.951Z,2.10
2017-10-24T17:11:24.191Z,2.23
2017-10-24T17:13:53.212Z,3.23
2017-10-24T17:16:22.067Z,2.20
2017-10-24T17:18:50.310Z,2.17
2017-10-24T17:21:18.691Z,2.40
2017-10-24T17:23:47.274Z,2.63
2017-10-24T17:26:16.698Z,1.90
2017-10-24T17:28:45.064Z,2.77
2017-10-24T17:31:13.459Z,2.40
2017-10-24T17:33:42.007Z,2.80
2017-10-24T17:36:10.235Z,2.53
2017-10-24T17:38:39.318Z,2.87
2017-10-24T17:41:07.883Z,4.17
2017-10-24T17:43:36.266Z,2.77
2017-10-24T17:46:04.667Z,2.67
2017-10-24T17:48:33.688Z,2.93
2017-10-24T17:51:02.082Z,2.77
2017-10-24T17:53:30.790Z,2.60
2017-10-24T17:56:01.237Z,2.90
2017-10-24T17:58:30.527Z,3.73
2017-10-24T18:00:58.990Z,3.47
2017-10-24T18:03:27.287Z,3.67
2017-10-24T18:05:58.740Z,3.73
2017-10-24T18:08:27.142Z,3.80
2017-10-24T18:10:56.178Z,3.90
2017-10-24T18:13:24.482Z,3.37
2017-10-24T18:15:53.069Z,4.10
2017-10-24T18:18:21.297Z,3.50
2017-10-24T18:20:51.482Z,3.03
2017-10-24T18:23:19.943Z,3.07
2017-10-24T18:25:49.151Z,3.27
2017-10-24T18:28:17.415Z,3.23
2017-10-24T18:30:45.703Z,3.50
2017-10-24T18:33:14.906Z,4.03
2017-10-24T18:35:43.348Z,3.70
2017-10-24T18:38:11.677Z,3.70
2017-10-24T18:40:40.039Z,4.00
2017-10-24T18:43:08.428Z,4.10
2017-10-24T18:45:36.876Z,3.43
2017-10-24T18:48:05.182Z,3.70
2017-10-24T18:50:33.443Z,3.90
2017-10-24T18:53:01.702Z,3.60
2017-10-24T18:55:31.228Z,4.20
2017-10-24T18:58:02.840Z,4.50
2017-10-24T19:00:31.094Z,3.70
2017-10-24T19:03:00.102Z,4.53
2017-10-24T19:05:29.219Z,4.73
2017-10-24T19:07:58.671Z,4.37
2017-10-24T19:10:27.057Z,4.03
2017-10-24T19:12:55.455Z,5.23
2017-10-24T19:15:24.483Z,4.13
2017-10-24T19:17:52.794Z,3.80
2017-10-24T19:20:21.187Z,4.00
2017-10-24T19:22:49.555Z,4.93
2017-10-24T19:25:17.936Z,5.40
2017-10-24T19:27:46.678Z,6.00
2017-10-24T19:30:15.004Z,4.80
2017-10-24T19:32:43.381Z,4.67
2017-10-24T19:35:11.678Z,4.63
2017-10-24T19:37:39.918Z,4.73
2017-10-24T19:40:09.546Z,4.60
2017-10-24T19:42:37.830Z,4.50
2017-10-24T19:45:06.075Z,4.53
2017-10-24T19:47:34.338Z,4.90
2017-10-24T19:50:02.789Z,5.90
2017-10-24T19:52:31.797Z,5.77
2017-10-24T19:55:00.044Z,5.10
2017-10-24T19:57:29.069Z,5.63
2017-10-24T19:59:57.313Z,5.10
2017-10-24T20:02:25.562Z,5.13
2017-10-24T20:04:53.829Z,6.30
2017-10-24T20:07:22.074Z,5.70
2017-10-24T20:09:50.314Z,5.10
2017-10-24T20:12:19.053Z,4.40
2017-10-24T20:14:47.298Z,4.10
2017-10-24T20:17:16.315Z,4.37
2017-10-24T20:19:44.575Z,3.70
2017-10-24T20:22:12.854Z,4.07
2017-10-24T20:24:41.095Z,4.90
2017-10-24T20:27:09.362Z,4.50
2017-10-24T20:29:37.606Z,5.27
2017-10-24T20:32:05.866Z,5.23
2017-10-24T20:34:34.466Z,4.97
2017-10-24T20:37:02.722Z,3.90
2017-10-24T20:39:30.966Z,4.63
2017-10-24T20:41:59.235Z,4.80
2017-10-24T20:44:27.483Z,4.23
2017-10-24T20:46:55.732Z,4.87
2017-10-24T20:49:23.999Z,4.77
2017-10-24T20:51:52.238Z,5.80
2017-10-24T20:54:20.494Z,4.40
2017-10-24T20:56:49.267Z,4.20
2017-10-24T20:59:17.507Z,4.83
2017-10-24T21:01:45.751Z,5.00
2017-10-24T21:04:14.020Z,5.00
2017-10-24T21:06:42.254Z,4.70
2017-10-24T21:09:10.503Z,5.13
2017-10-24T21:11:39.539Z,4.83
2017-10-24T21:14:07.783Z,5.70
2017-10-24T21:16:36.026Z,4.77
2017-10-24T21:19:04.386Z,5.43
2017-10-24T21:21:32.628Z,5.17
2017-10-24T21:24:01.087Z,6.00
2017-10-24T21:26:30.122Z,5.53
2017-10-24T21:28:58.374Z,4.53
2017-10-24T21:31:26.608Z,5.57
2017-10-24T21:33:54.880Z,5.17
2017-10-24T21:36:23.127Z,5.50
2017-10-24T21:38:51.370Z,5.10
2017-10-24T21:41:19.954Z,5.50
2017-10-24T21:43:48.190Z,5.27
2017-10-24T21:46:16.439Z,5.57
2017-10-24T21:48:44.703Z,5.10
2017-10-24T21:51:12.944Z,4.90
2017-10-24T21:53:41.947Z,4.80
2017-10-24T21:56:11.030Z,5.43
2017-10-24T21:58:39.262Z,4.40
2017-10-24T22:01:07.506Z,5.67
2017-10-24T22:03:36.422Z,5.53
2017-10-24T22:06:04.664Z,5.50
2017-10-24T22:08:32.906Z,6.60
2017-10-24T22:11:01.181Z,5.87
2017-10-24T22:13:29.430Z,5.90
2017-10-24T22:15:57.670Z,5.60
2017-10-24T22:18:26.698Z,6.37
2017-10-24T22:20:54.950Z,6.77
2017-10-24T22:23:23.198Z,6.23
2017-10-24T22:25:51.847Z,5.53
2017-10-24T22:28:20.090Z,6.40
2017-10-24T22:30:48.330Z,6.60
2017-10-24T22:33:16.647Z,7.27
2017-10-24T22:35:44.898Z,6.90
2017-10-24T22:38:13.919Z,8.13
2017-10-24T22:40:42.186Z,8.63
2017-10-24T22:43:10.434Z,6.93
2017-10-24T22:45:38.672Z,7.17
2017-10-24T22:48:07.130Z,8.50
2017-10-24T22:50:35.582Z,8.20
2017-10-24T22:53:04.602Z,7.83
2017-10-24T22:55:32.879Z,9.10
2017-10-24T22:58:01.122Z,8.57
2017-10-24T23:00:29.366Z,8.10
2017-10-24T23:02:57.630Z,8.90
2017-10-24T23:05:25.887Z,8.10
2017-10-24T23:07:54.139Z,8.90
2017-10-24T23:10:23.429Z,9.97
2017-10-24T23:12:51.683Z,8.40
2017-10-24T23:15:19.934Z,9.40
2017-10-24T23:17:48.211Z,9.20
2017-10-24T23:20:16.466Z,10.50
2017-10-24T23:22:44.714Z,8.90
2017-10-24T23:25:13.751Z,9.43
2017-10-24T23:27:42.489Z,9.40
2017-10-24T23:30:11.511Z,9.40
2017-10-24T23:32:40.035Z,9.17
2017-10-24T23:35:08.283Z,8.50
2017-10-24T23:37:36.594Z,9.00
2017-10-24T23:40:05.191Z,9.00
2017-10-24T23:42:33.444Z,10.13
2017-10-24T23:45:01.695Z,9.47
2017-10-24T23:47:29.966Z,10.23
2017-10-24T23:49:58.215Z,8.67
2017-10-24T23:52:27.226Z,8.93
2017-10-24T23:54:56.443Z,8.60
2017-10-24T23:57:24.687Z,8.83
2017-10-24T23:59:53.706Z,8.80
